sensor_id;sensor_type;location;lat;lon;timestamp;temperature;humidity
50013;DHT22;35901;48.694;9.476;2022-09-17T00:01:18;8.50;99.90
50013;DHT22;35901;48.694;9.476;2022-09-17T00:03:48;8.50;99.90
50013;DHT22;35901;48.694;9.476;2022-09-17T00:06:15;8.50;99.90
50013;DHT22;35901;48.694;9.476;2022-09-17T00:08:41;8.40;99.90
50013;DHT22;35901;48.694;9.476;2022-09-17T00:11:12;8.40;99.90
50013;DHT22;35901;48.694;9.476;2022-09-17T00:13:39;8.30;99.90
50013;DHT22;35901;48.694;9.476;2022-09-17T00:16:05;8.40;99.90
50013;DHT22;35901;48.694;9.476;2022-09-17T00:18:31;8.40;99.90
50013;DHT22;35901;48.694;9.476;2022-09-17T00:20:57;8.40;99.90
50013;DHT22;35901;48.694;9.476;2022-09-17T00:23:23;8.50;99.90
50013;DHT22;35901;48.694;9.476;2022-09-17T00:25:49;8.40;99.90
50013;DHT22;35901;48.694;9.476;2022-09-17T00:28:14;8.50;99.90
50013;DHT22;35901;48.694;9.476;2022-09-17T00:30:42;8.40;99.90
50013;DHT22;35901;48.694;9.476;2022-09-17T00:33:11;8.30;99.90
50013;DHT22;35901;48.694;9.476;2022-09-17T00:35:37;8.30;99.90
50013;DHT22;35901;48.694;9.476;2022-09-17T00:38:03;8.30;99.90
50013;DHT22;35901;48.694;9.476;2022-09-17T00:40:29;8.20;99.90
50013;DHT22;35901;48.694;9.476;2022-09-17T00:42:54;8.20;99.90
50013;DHT22;35901;48.694;9.476;2022-09-17T00:45:20;8.20;99.90
50013;DHT22;35901;48.694;9.476;2022-09-17T00:47:54;8.10;99.90
50013;DHT22;35901;48.694;9.476;2022-09-17T00:50:40;8.00;99.90
50013;DHT22;35901;48.694;9.476;2022-09-17T00:53:18;8.00;99.90
50013;DHT22;35901;48.694;9.476;2022-09-17T00:55:58;8.00;99.90
50013;DHT22;35901;48.694;9.476;2022-09-17T00:58:26;8.00;99.90
50013;DHT22;35901;48.694;9.476;2022-09-17T01:00:52;8.00;99.90
50013;DHT22;35901;48.694;9.476;2022-09-17T01:03:18;7.90;99.90
50013;DHT22;35901;48.694;9.476;2022-09-17T01:06:20;7.90;99.90
50013;DHT22;35901;48.694;9.476;2022-09-17T01:09:12;8.00;99.90
50013;DHT22;35901;48.694;9.476;2022-09-17T01:12:33;7.90;99.90
50013;DHT22;35901;48.694;9.476;2022-09-17T01:17:19;8.00;99.90
50013;DHT22;35901;48.694;9.476;2022-09-17T01:25:22;8.10;99.90
50013;DHT22;35901;48.694;9.476;2022-09-17T01:28:23;8.10;99.90
50013;DHT22;35901;48.694;9.476;2022-09-17T01:30:54;8.10;99.90
50013;DHT22;35901;48.694;9.476;2022-09-17T01:39:02;8.30;99.90
50013;DHT22;35901;48.694;9.476;2022-09-17T01:44:17;8.40;99.90
50013;DHT22;35901;48.694;9.476;2022-09-17T01:47:04;8.40;99.90
50013;DHT22;35901;48.694;9.476;2022-09-17T01:49:35;8.50;99.90
50013;DHT22;35901;48.694;9.476;2022-09-17T01:52:03;8.40;99.90
50013;DHT22;35901;48.694;9.476;2022-09-17T01:54:48;8.40;99.90
50013;DHT22;35901;48.694;9.476;2022-09-17T01:57:22;8.40;99.90
50013;DHT22;35901;48.694;9.476;2022-09-17T01:59:56;8.40;99.90
50013;DHT22;35901;48.694;9.476;2022-09-17T02:05:07;8.30;99.90
50013;DHT22;35901;48.694;9.476;2022-09-17T02:08:13;8.30;99.90
50013;DHT22;35901;48.694;9.476;2022-09-17T02:10:33;8.30;99.90
50013;DHT22;35901;48.694;9.476;2022-09-17T02:13:06;8.30;99.90
50013;DHT22;35901;48.694;9.476;2022-09-17T02:15:40;8.30;99.90
50013;DHT22;35901;48.694;9.476;2022-09-17T02:18:24;8.30;99.90
50013;DHT22;35901;48.694;9.476;2022-09-17T02:21:03;8.40;99.90
50013;DHT22;35901;48.694;9.476;2022-09-17T02:23:35;8.50;99.90
50013;DHT22;35901;48.694;9.476;2022-09-17T02:26:15;8.50;99.90
50013;DHT22;35901;48.694;9.476;2022-09-17T02:28:47;8.60;99.90
50013;DHT22;35901;48.694;9.476;2022-09-17T02:31:14;8.60;99.90
50013;DHT22;35901;48.694;9.476;2022-09-17T02:33:42;8.70;99.90
50013;DHT22;35901;48.694;9.476;2022-09-17T02:36:09;8.70;99.90
50013;DHT22;35901;48.694;9.476;2022-09-17T02:38:36;8.80;99.90
50013;DHT22;35901;48.694;9.476;2022-09-17T02:41:17;8.70;99.90
50013;DHT22;35901;48.694;9.476;2022-09-17T02:49:30;8.70;99.90
50013;DHT22;35901;48.694;9.476;2022-09-17T02:55:18;8.40;99.90
50013;DHT22;35901;48.694;9.476;2022-09-17T02:58:01;8.20;99.90
50013;DHT22;35901;48.694;9.476;2022-09-17T03:00:30;8.10;99.90
50013;DHT22;35901;48.694;9.476;2022-09-17T03:03:11;8.00;99.90
50013;DHT22;35901;48.694;9.476;2022-09-17T03:05:39;7.90;99.90
50013;DHT22;35901;48.694;9.476;2022-09-17T03:08:08;7.90;99.90
50013;DHT22;35901;48.694;9.476;2022-09-17T03:10:37;7.90;99.90
50013;DHT22;35901;48.694;9.476;2022-09-17T03:13:02;7.90;99.90
50013;DHT22;35901;48.694;9.476;2022-09-17T03:15:28;7.80;99.90
50013;DHT22;35901;48.694;9.476;2022-09-17T03:17:54;7.80;99.90
50013;DHT22;35901;48.694;9.476;2022-09-17T03:20:20;7.70;99.90
50013;DHT22;35901;48.694;9.476;2022-09-17T03:22:45;7.60;99.90
50013;DHT22;35901;48.694;9.476;2022-09-17T03:25:11;7.60;99.90
50013;DHT22;35901;48.694;9.476;2022-09-17T03:27:37;7.60;99.90
50013;DHT22;35901;48.694;9.476;2022-09-17T03:30:04;7.60;99.90
50013;DHT22;35901;48.694;9.476;2022-09-17T03:32:30;7.50;99.90
50013;DHT22;35901;48.694;9.476;2022-09-17T03:34:56;7.50;99.90
50013;DHT22;35901;48.694;9.476;2022-09-17T03:37:22;7.50;99.90
50013;DHT22;35901;48.694;9.476;2022-09-17T03:39:47;7.50;99.90
50013;DHT22;35901;48.694;9.476;2022-09-17T03:42:13;7.50;99.90
50013;DHT22;35901;48.694;9.476;2022-09-17T03:44:38;7.50;99.90
50013;DHT22;35901;48.694;9.476;2022-09-17T03:47:04;7.40;99.90
50013;DHT22;35901;48.694;9.476;2022-09-17T03:49:30;7.40;99.90
50013;DHT22;35901;48.694;9.476;2022-09-17T03:51:55;7.30;99.90
50013;DHT22;35901;48.694;9.476;2022-09-17T03:54:21;7.30;99.90
50013;DHT22;35901;48.694;9.476;2022-09-17T03:56:47;7.30;99.90
50013;DHT22;35901;48.694;9.476;2022-09-17T03:59:13;7.30;99.90
50013;DHT22;35901;48.694;9.476;2022-09-17T04:01:38;7.30;99.90
50013;DHT22;35901;48.694;9.476;2022-09-17T04:04:04;7.40;99.90
50013;DHT22;35901;48.694;9.476;2022-09-17T04:06:30;7.40;99.90
50013;DHT22;35901;48.694;9.476;2022-09-17T04:08:56;7.50;99.90
50013;DHT22;35901;48.694;9.476;2022-09-17T04:11:22;7.50;99.90
50013;DHT22;35901;48.694;9.476;2022-09-17T04:13:47;7.50;99.90
50013;DHT22;35901;48.694;9.476;2022-09-17T04:16:13;7.50;99.90
50013;DHT22;35901;48.694;9.476;2022-09-17T04:18:39;7.50;99.90
50013;DHT22;35901;48.694;9.476;2022-09-17T04:21:05;7.40;99.90
50013;DHT22;35901;48.694;9.476;2022-09-17T04:23:31;7.40;99.90
50013;DHT22;35901;48.694;9.476;2022-09-17T04:25:56;7.40;99.90
50013;DHT22;35901;48.694;9.476;2022-09-17T04:28:22;7.30;99.90
50013;DHT22;35901;48.694;9.476;2022-09-17T04:30:48;7.30;99.90
50013;DHT22;35901;48.694;9.476;2022-09-17T04:33:14;7.30;99.90
50013;DHT22;35901;48.694;9.476;2022-09-17T04:35:40;7.50;99.90
50013;DHT22;35901;48.694;9.476;2022-09-17T04:38:05;7.60;99.90
50013;DHT22;35901;48.694;9.476;2022-09-17T04:40:31;7.70;99.90
50013;DHT22;35901;48.694;9.476;2022-09-17T04:42:58;7.80;99.90
50013;DHT22;35901;48.694;9.476;2022-09-17T04:45:24;7.90;99.90
50013;DHT22;35901;48.694;9.476;2022-09-17T04:47:51;8.00;99.90
50013;DHT22;35901;48.694;9.476;2022-09-17T04:50:17;8.10;99.90
50013;DHT22;35901;48.694;9.476;2022-09-17T04:52:43;8.10;99.90
50013;DHT22;35901;48.694;9.476;2022-09-17T04:55:10;8.20;99.90
50013;DHT22;35901;48.694;9.476;2022-09-17T04:57:36;8.20;99.90
50013;DHT22;35901;48.694;9.476;2022-09-17T05:00:04;8.20;99.90
50013;DHT22;35901;48.694;9.476;2022-09-17T05:02:31;8.20;99.90
50013;DHT22;35901;48.694;9.476;2022-09-17T05:04:57;8.20;99.90
50013;DHT22;35901;48.694;9.476;2022-09-17T05:07:22;8.20;99.90
50013;DHT22;35901;48.694;9.476;2022-09-17T05:09:48;8.20;99.90
50013;DHT22;35901;48.694;9.476;2022-09-17T05:12:14;8.30;99.90
50013;DHT22;35901;48.694;9.476;2022-09-17T05:14:39;8.30;99.90
50013;DHT22;35901;48.694;9.476;2022-09-17T05:17:05;8.30;99.90
50013;DHT22;35901;48.694;9.476;2022-09-17T05:19:31;8.30;99.90
50013;DHT22;35901;48.694;9.476;2022-09-17T05:21:59;8.40;99.90
50013;DHT22;35901;48.694;9.476;2022-09-17T05:24:25;8.40;99.90
50013;DHT22;35901;48.694;9.476;2022-09-17T05:26:52;8.40;99.90
50013;DHT22;35901;48.694;9.476;2022-09-17T05:29:17;8.40;99.90
50013;DHT22;35901;48.694;9.476;2022-09-17T05:31:43;8.50;99.90
50013;DHT22;35901;48.694;9.476;2022-09-17T05:34:08;8.50;99.90
50013;DHT22;35901;48.694;9.476;2022-09-17T05:36:34;8.60;99.90
50013;DHT22;35901;48.694;9.476;2022-09-17T05:39:00;8.60;99.90
50013;DHT22;35901;48.694;9.476;2022-09-17T05:41:25;8.70;99.90
50013;DHT22;35901;48.694;9.476;2022-09-17T05:43:51;8.70;99.90
50013;DHT22;35901;48.694;9.476;2022-09-17T05:46:16;8.70;99.90
50013;DHT22;35901;48.694;9.476;2022-09-17T05:48:42;8.70;99.90
50013;DHT22;35901;48.694;9.476;2022-09-17T05:51:08;8.80;99.90
50013;DHT22;35901;48.694;9.476;2022-09-17T05:53:34;8.80;99.90
50013;DHT22;35901;48.694;9.476;2022-09-17T05:56:00;8.80;99.90
50013;DHT22;35901;48.694;9.476;2022-09-17T05:58:25;8.80;99.90
50013;DHT22;35901;48.694;9.476;2022-09-17T06:00:51;8.90;99.90
50013;DHT22;35901;48.694;9.476;2022-09-17T06:03:18;8.90;99.90
50013;DHT22;35901;48.694;9.476;2022-09-17T06:05:56;8.90;99.90
50013;DHT22;35901;48.694;9.476;2022-09-17T06:08:23;9.00;99.90
50013;DHT22;35901;48.694;9.476;2022-09-17T06:10:49;9.00;99.90
50013;DHT22;35901;48.694;9.476;2022-09-17T06:13:16;9.10;99.90
50013;DHT22;35901;48.694;9.476;2022-09-17T06:15:42;9.10;99.90
50013;DHT22;35901;48.694;9.476;2022-09-17T06:18:08;9.20;99.90
50013;DHT22;35901;48.694;9.476;2022-09-17T06:20:34;9.30;99.90
50013;DHT22;35901;48.694;9.476;2022-09-17T06:22:59;9.30;99.90
50013;DHT22;35901;48.694;9.476;2022-09-17T06:25:25;9.40;99.90
50013;DHT22;35901;48.694;9.476;2022-09-17T06:27:51;9.40;99.90
50013;DHT22;35901;48.694;9.476;2022-09-17T06:30:17;9.40;99.90
50013;DHT22;35901;48.694;9.476;2022-09-17T06:32:42;9.40;99.90
50013;DHT22;35901;48.694;9.476;2022-09-17T06:35:08;9.40;99.90
50013;DHT22;35901;48.694;9.476;2022-09-17T06:37:34;9.40;99.90
50013;DHT22;35901;48.694;9.476;2022-09-17T06:40:04;9.40;99.90
50013;DHT22;35901;48.694;9.476;2022-09-17T06:42:30;9.40;99.90
50013;DHT22;35901;48.694;9.476;2022-09-17T06:44:56;9.40;99.90
50013;DHT22;35901;48.694;9.476;2022-09-17T06:47:26;9.40;99.90
50013;DHT22;35901;48.694;9.476;2022-09-17T06:49:52;9.40;99.90
50013;DHT22;35901;48.694;9.476;2022-09-17T06:52:19;9.40;99.90
50013;DHT22;35901;48.694;9.476;2022-09-17T06:54:45;9.40;99.90
50013;DHT22;35901;48.694;9.476;2022-09-17T06:57:12;9.30;99.90
50013;DHT22;35901;48.694;9.476;2022-09-17T06:59:39;9.30;99.90
50013;DHT22;35901;48.694;9.476;2022-09-17T07:02:05;9.30;99.90
50013;DHT22;35901;48.694;9.476;2022-09-17T07:04:31;9.30;99.90
50013;DHT22;35901;48.694;9.476;2022-09-17T07:06:56;9.30;99.90
50013;DHT22;35901;48.694;9.476;2022-09-17T07:09:22;9.30;99.90
50013;DHT22;35901;48.694;9.476;2022-09-17T07:11:48;9.30;99.90
50013;DHT22;35901;48.694;9.476;2022-09-17T07:14:13;9.40;99.90
50013;DHT22;35901;48.694;9.476;2022-09-17T07:16:39;9.40;99.90
50013;DHT22;35901;48.694;9.476;2022-09-17T07:19:05;9.40;99.90
50013;DHT22;35901;48.694;9.476;2022-09-17T07:21:31;9.40;99.90
50013;DHT22;35901;48.694;9.476;2022-09-17T07:23:57;9.50;99.90
50013;DHT22;35901;48.694;9.476;2022-09-17T07:26:23;9.40;99.90
50013;DHT22;35901;48.694;9.476;2022-09-17T07:28:49;9.50;99.90
50013;DHT22;35901;48.694;9.476;2022-09-17T07:31:15;9.50;99.90
50013;DHT22;35901;48.694;9.476;2022-09-17T07:33:41;9.50;99.90
50013;DHT22;35901;48.694;9.476;2022-09-17T07:36:10;9.40;99.90
50013;DHT22;35901;48.694;9.476;2022-09-17T07:38:36;9.40;99.90
50013;DHT22;35901;48.694;9.476;2022-09-17T07:41:03;9.40;99.90
50013;DHT22;35901;48.694;9.476;2022-09-17T07:43:31;9.40;99.90
50013;DHT22;35901;48.694;9.476;2022-09-17T07:45:58;9.40;99.90
50013;DHT22;35901;48.694;9.476;2022-09-17T07:48:25;9.40;99.90
50013;DHT22;35901;48.694;9.476;2022-09-17T07:50:51;9.40;99.90
50013;DHT22;35901;48.694;9.476;2022-09-17T07:53:17;9.40;99.90
50013;DHT22;35901;48.694;9.476;2022-09-17T07:55:50;9.40;99.90
50013;DHT22;35901;48.694;9.476;2022-09-17T07:58:16;9.30;99.90
50013;DHT22;35901;48.694;9.476;2022-09-17T08:00:42;9.10;99.90
50013;DHT22;35901;48.694;9.476;2022-09-17T08:03:08;9.00;99.90
50013;DHT22;35901;48.694;9.476;2022-09-17T08:05:33;8.90;99.90
50013;DHT22;35901;48.694;9.476;2022-09-17T08:07:59;8.90;99.90
50013;DHT22;35901;48.694;9.476;2022-09-17T08:10:25;8.80;99.90
50013;DHT22;35901;48.694;9.476;2022-09-17T08:12:56;8.80;99.90
50013;DHT22;35901;48.694;9.476;2022-09-17T08:15:23;8.70;99.90
50013;DHT22;35901;48.694;9.476;2022-09-17T08:17:49;8.70;99.90
50013;DHT22;35901;48.694;9.476;2022-09-17T08:20:15;8.70;99.90
50013;DHT22;35901;48.694;9.476;2022-09-17T08:22:41;8.70;99.90
50013;DHT22;35901;48.694;9.476;2022-09-17T08:25:08;8.60;99.90
50013;DHT22;35901;48.694;9.476;2022-09-17T08:27:34;8.70;99.90
50013;DHT22;35901;48.694;9.476;2022-09-17T08:30:00;8.70;99.90
50013;DHT22;35901;48.694;9.476;2022-09-17T08:32:28;8.80;99.90
50013;DHT22;35901;48.694;9.476;2022-09-17T08:34:54;8.90;99.90
50013;DHT22;35901;48.694;9.476;2022-09-17T08:37:20;9.00;99.90
50013;DHT22;35901;48.694;9.476;2022-09-17T08:39:45;9.00;99.90
50013;DHT22;35901;48.694;9.476;2022-09-17T08:42:31;9.00;99.90
50013;DHT22;35901;48.694;9.476;2022-09-17T08:45:03;9.10;99.90
50013;DHT22;35901;48.694;9.476;2022-09-17T08:47:32;9.10;99.90
50013;DHT22;35901;48.694;9.476;2022-09-17T08:50:03;9.10;99.90
50013;DHT22;35901;48.694;9.476;2022-09-17T08:55:43;9.10;99.90
50013;DHT22;35901;48.694;9.476;2022-09-17T08:58:21;9.00;99.90
50013;DHT22;35901;48.694;9.476;2022-09-17T09:03:49;9.10;99.90
50013;DHT22;35901;48.694;9.476;2022-09-17T09:06:23;9.30;99.90
50013;DHT22;35901;48.694;9.476;2022-09-17T09:09:00;9.30;99.90
50013;DHT22;35901;48.694;9.476;2022-09-17T09:11:30;9.50;99.90
50013;DHT22;35901;48.694;9.476;2022-09-17T09:14:07;9.50;99.90
50013;DHT22;35901;48.694;9.476;2022-09-17T09:16:48;9.60;99.90
50013;DHT22;35901;48.694;9.476;2022-09-17T09:22:13;10.00;99.90
50013;DHT22;35901;48.694;9.476;2022-09-17T09:25:14;10.20;99.90
50013;DHT22;35901;48.694;9.476;2022-09-17T09:27:58;10.40;99.90
50013;DHT22;35901;48.694;9.476;2022-09-17T09:30:31;10.50;99.90
50013;DHT22;35901;48.694;9.476;2022-09-17T09:33:14;10.60;99.90
50013;DHT22;35901;48.694;9.476;2022-09-17T09:35:42;10.70;99.90
50013;DHT22;35901;48.694;9.476;2022-09-17T09:51:58;10.50;99.90
50013;DHT22;35901;48.694;9.476;2022-09-17T09:57:54;10.70;99.90
50013;DHT22;35901;48.694;9.476;2022-09-17T10:05:39;11.30;99.90
50013;DHT22;35901;48.694;9.476;2022-09-17T10:08:15;11.10;99.90
50013;DHT22;35901;48.694;9.476;2022-09-17T10:13:22;10.70;99.90
50013;DHT22;35901;48.694;9.476;2022-09-17T10:15:48;10.60;99.90
50013;DHT22;35901;48.694;9.476;2022-09-17T10:18:19;10.70;99.90
50013;DHT22;35901;48.694;9.476;2022-09-17T10:20:53;10.80;99.90
50013;DHT22;35901;48.694;9.476;2022-09-17T10:23:20;10.80;99.90
50013;DHT22;35901;48.694;9.476;2022-09-17T10:25:46;10.80;99.90
50013;DHT22;35901;48.694;9.476;2022-09-17T10:28:31;10.70;99.90
50013;DHT22;35901;48.694;9.476;2022-09-17T10:31:05;10.60;99.90
50013;DHT22;35901;48.694;9.476;2022-09-17T10:33:49;10.50;99.90
50013;DHT22;35901;48.694;9.476;2022-09-17T10:36:16;10.50;99.90
50013;DHT22;35901;48.694;9.476;2022-09-17T10:38:43;10.50;99.90
50013;DHT22;35901;48.694;9.476;2022-09-17T10:41:20;10.60;99.90
50013;DHT22;35901;48.694;9.476;2022-09-17T10:43:50;10.60;99.90
50013;DHT22;35901;48.694;9.476;2022-09-17T10:46:26;10.80;99.90
50013;DHT22;35901;48.694;9.476;2022-09-17T10:49:25;10.90;99.90
50013;DHT22;35901;48.694;9.476;2022-09-17T10:52:25;11.00;99.90
50013;DHT22;35901;48.694;9.476;2022-09-17T10:57:36;11.30;99.90
50013;DHT22;35901;48.694;9.476;2022-09-17T11:09:01;12.60;99.90
50013;DHT22;35901;48.694;9.476;2022-09-17T11:11:31;12.90;99.90
50013;DHT22;35901;48.694;9.476;2022-09-17T11:22:07;13.60;99.90
50013;DHT22;35901;48.694;9.476;2022-09-17T11:24:44;13.30;99.90
50013;DHT22;35901;48.694;9.476;2022-09-17T11:35:51;13.10;99.90
50013;DHT22;35901;48.694;9.476;2022-09-17T11:38:39;13.30;99.90
50013;DHT22;35901;48.694;9.476;2022-09-17T11:41:22;13.30;99.90
50013;DHT22;35901;48.694;9.476;2022-09-17T11:46:44;13.40;99.90
50013;DHT22;35901;48.694;9.476;2022-09-17T11:52:10;13.50;99.90
50013;DHT22;35901;48.694;9.476;2022-09-17T11:54:56;13.60;99.00
50013;DHT22;35901;48.694;9.476;2022-09-17T11:57:30;13.50;98.30
50013;DHT22;35901;48.694;9.476;2022-09-17T12:00:12;13.50;97.70
50013;DHT22;35901;48.694;9.476;2022-09-17T12:05:47;13.60;97.70
50013;DHT22;35901;48.694;9.476;2022-09-17T12:11:15;13.90;95.30
50013;DHT22;35901;48.694;9.476;2022-09-17T12:13:42;14.00;96.20
50013;DHT22;35901;48.694;9.476;2022-09-17T12:16:25;14.60;94.70
50013;DHT22;35901;48.694;9.476;2022-09-17T12:21:52;14.20;94.50
50013;DHT22;35901;48.694;9.476;2022-09-17T12:24:24;14.10;94.80
50013;DHT22;35901;48.694;9.476;2022-09-17T12:33:12;13.90;93.50
50013;DHT22;35901;48.694;9.476;2022-09-17T12:41:26;12.70;97.50
50013;DHT22;35901;48.694;9.476;2022-09-17T12:52:10;12.40;98.80
50013;DHT22;35901;48.694;9.476;2022-09-17T12:54:44;12.50;98.80
50013;DHT22;35901;48.694;9.476;2022-09-17T13:00:12;12.20;99.10
50013;DHT22;35901;48.694;9.476;2022-09-17T13:13:57;10.60;99.90
50013;DHT22;35901;48.694;9.476;2022-09-17T13:16:49;10.70;99.90
50013;DHT22;35901;48.694;9.476;2022-09-17T13:22:18;10.90;99.90
50013;DHT22;35901;48.694;9.476;2022-09-17T13:24:45;11.10;99.90
50013;DHT22;35901;48.694;9.476;2022-09-17T13:27:24;11.30;99.90
50013;DHT22;35901;48.694;9.476;2022-09-17T13:40:21;11.40;99.90
50013;DHT22;35901;48.694;9.476;2022-09-17T13:42:51;11.20;99.90
50013;DHT22;35901;48.694;9.476;2022-09-17T13:45:20;11.10;99.90
50013;DHT22;35901;48.694;9.476;2022-09-17T13:47:53;11.10;99.90
50013;DHT22;35901;48.694;9.476;2022-09-17T13:50:32;11.20;99.90
50013;DHT22;35901;48.694;9.476;2022-09-17T13:53:19;11.30;99.90
50013;DHT22;35901;48.694;9.476;2022-09-17T13:55:57;11.30;99.90
50013;DHT22;35901;48.694;9.476;2022-09-17T13:58:29;11.20;99.90
50013;DHT22;35901;48.694;9.476;2022-09-17T14:13:54;11.10;99.90
50013;DHT22;35901;48.694;9.476;2022-09-17T14:32:42;12.00;99.90
50013;DHT22;35901;48.694;9.476;2022-09-17T14:38:20;12.20;99.90
50013;DHT22;35901;48.694;9.476;2022-09-17T14:41:14;12.20;99.90
50013;DHT22;35901;48.694;9.476;2022-09-17T14:44:02;12.30;99.90
50013;DHT22;35901;48.694;9.476;2022-09-17T14:54:27;12.60;99.90
50013;DHT22;35901;48.694;9.476;2022-09-17T14:57:22;12.60;99.90
50013;DHT22;35901;48.694;9.476;2022-09-17T14:59:57;12.70;99.90
50013;DHT22;35901;48.694;9.476;2022-09-17T15:02:40;13.00;99.90
50013;DHT22;35901;48.694;9.476;2022-09-17T15:05:16;13.50;99.90
50013;DHT22;35901;48.694;9.476;2022-09-17T15:07:43;13.80;99.90
50013;DHT22;35901;48.694;9.476;2022-09-17T15:10:14;13.60;99.90
50013;DHT22;35901;48.694;9.476;2022-09-17T15:12:41;13.20;99.90
50013;DHT22;35901;48.694;9.476;2022-09-17T15:15:23;13.00;99.90
50013;DHT22;35901;48.694;9.476;2022-09-17T15:17:51;12.70;99.90
50013;DHT22;35901;48.694;9.476;2022-09-17T15:20:21;12.50;99.90
50013;DHT22;35901;48.694;9.476;2022-09-17T15:23:22;12.30;99.90
50013;DHT22;35901;48.694;9.476;2022-09-17T15:25:49;12.30;99.90
50013;DHT22;35901;48.694;9.476;2022-09-17T15:28:33;12.60;99.90
50013;DHT22;35901;48.694;9.476;2022-09-17T15:31:01;13.10;99.90
50013;DHT22;35901;48.694;9.476;2022-09-17T15:33:29;13.30;99.90
50013;DHT22;35901;48.694;9.476;2022-09-17T15:36:23;13.50;99.90
50013;DHT22;35901;48.694;9.476;2022-09-17T15:38:47;13.30;99.90
50013;DHT22;35901;48.694;9.476;2022-09-17T15:44:22;12.40;99.90
50013;DHT22;35901;48.694;9.476;2022-09-17T15:46:48;12.10;99.90
50013;DHT22;35901;48.694;9.476;2022-09-17T15:49:33;11.90;99.90
50013;DHT22;35901;48.694;9.476;2022-09-17T15:52:29;11.70;99.90
50013;DHT22;35901;48.694;9.476;2022-09-17T15:54:59;11.60;99.90
50013;DHT22;35901;48.694;9.476;2022-09-17T15:57:31;11.60;99.90
50013;DHT22;35901;48.694;9.476;2022-09-17T16:00:11;11.50;99.90
50013;DHT22;35901;48.694;9.476;2022-09-17T16:02:40;11.60;99.90
50013;DHT22;35901;48.694;9.476;2022-09-17T16:07:47;11.50;99.90
50013;DHT22;35901;48.694;9.476;2022-09-17T16:10:14;11.50;99.90
50013;DHT22;35901;48.694;9.476;2022-09-17T16:12:44;11.50;99.90
50013;DHT22;35901;48.694;9.476;2022-09-17T16:15:14;11.50;99.90
50013;DHT22;35901;48.694;9.476;2022-09-17T16:17:50;11.60;99.90
50013;DHT22;35901;48.694;9.476;2022-09-17T16:20:20;11.70;99.90
50013;DHT22;35901;48.694;9.476;2022-09-17T16:22:48;12.00;99.90
50013;DHT22;35901;48.694;9.476;2022-09-17T16:25:16;12.00;99.90
50013;DHT22;35901;48.694;9.476;2022-09-17T16:28:06;12.00;99.90
50013;DHT22;35901;48.694;9.476;2022-09-17T16:30:34;11.80;99.90
50013;DHT22;35901;48.694;9.476;2022-09-17T16:32:59;11.70;99.90
50013;DHT22;35901;48.694;9.476;2022-09-17T16:35:28;11.50;99.90
50013;DHT22;35901;48.694;9.476;2022-09-17T16:37:54;11.40;99.90
50013;DHT22;35901;48.694;9.476;2022-09-17T16:40:22;11.30;99.90
50013;DHT22;35901;48.694;9.476;2022-09-17T16:42:48;11.30;99.90
50013;DHT22;35901;48.694;9.476;2022-09-17T16:45:16;11.30;99.90
50013;DHT22;35901;48.694;9.476;2022-09-17T16:47:45;11.30;99.90
50013;DHT22;35901;48.694;9.476;2022-09-17T16:50:13;11.40;99.90
50013;DHT22;35901;48.694;9.476;2022-09-17T16:52:39;11.50;99.90
50013;DHT22;35901;48.694;9.476;2022-09-17T16:55:06;11.50;99.90
50013;DHT22;35901;48.694;9.476;2022-09-17T16:57:33;11.50;99.90
50013;DHT22;35901;48.694;9.476;2022-09-17T16:59:59;11.50;99.90
50013;DHT22;35901;48.694;9.476;2022-09-17T17:02:25;11.50;99.90
50013;DHT22;35901;48.694;9.476;2022-09-17T17:04:50;11.50;99.90
50013;DHT22;35901;48.694;9.476;2022-09-17T17:07:16;11.40;99.90
50013;DHT22;35901;48.694;9.476;2022-09-17T17:09:42;11.40;99.90
50013;DHT22;35901;48.694;9.476;2022-09-17T17:12:08;11.40;99.90
50013;DHT22;35901;48.694;9.476;2022-09-17T17:14:33;11.40;99.90
50013;DHT22;35901;48.694;9.476;2022-09-17T17:16:59;11.40;99.90
50013;DHT22;35901;48.694;9.476;2022-09-17T17:19:26;11.40;99.90
50013;DHT22;35901;48.694;9.476;2022-09-17T17:21:56;11.30;99.90
50013;DHT22;35901;48.694;9.476;2022-09-17T17:24:22;11.30;99.90
50013;DHT22;35901;48.694;9.476;2022-09-17T17:26:48;11.40;99.90
50013;DHT22;35901;48.694;9.476;2022-09-17T17:29:14;11.40;99.90
50013;DHT22;35901;48.694;9.476;2022-09-17T17:31:41;11.30;99.90
50013;DHT22;35901;48.694;9.476;2022-09-17T17:34:07;11.30;99.90
50013;DHT22;35901;48.694;9.476;2022-09-17T17:36:33;11.30;99.90
50013;DHT22;35901;48.694;9.476;2022-09-17T17:38:59;11.20;99.90
50013;DHT22;35901;48.694;9.476;2022-09-17T17:41:25;11.20;99.90
50013;DHT22;35901;48.694;9.476;2022-09-17T17:43:53;11.20;99.90
50013;DHT22;35901;48.694;9.476;2022-09-17T17:46:20;11.00;99.90
50013;DHT22;35901;48.694;9.476;2022-09-17T17:48:48;10.80;99.90
50013;DHT22;35901;48.694;9.476;2022-09-17T17:51:18;10.50;99.90
50013;DHT22;35901;48.694;9.476;2022-09-17T17:53:45;10.30;99.90
50013;DHT22;35901;48.694;9.476;2022-09-17T17:56:12;10.10;99.90
50013;DHT22;35901;48.694;9.476;2022-09-17T17:58:39;9.90;99.90
50013;DHT22;35901;48.694;9.476;2022-09-17T18:01:26;9.80;99.90
50013;DHT22;35901;48.694;9.476;2022-09-17T18:03:57;9.60;99.90
50013;DHT22;35901;48.694;9.476;2022-09-17T18:06:22;9.40;99.90
50013;DHT22;35901;48.694;9.476;2022-09-17T18:08:49;9.20;99.90
50013;DHT22;35901;48.694;9.476;2022-09-17T18:11:15;8.80;99.90
50013;DHT22;35901;48.694;9.476;2022-09-17T18:13:41;8.40;99.90
50013;DHT22;35901;48.694;9.476;2022-09-17T18:16:10;8.00;99.90
50013;DHT22;35901;48.694;9.476;2022-09-17T18:18:39;7.90;99.90
50013;DHT22;35901;48.694;9.476;2022-09-17T18:21:08;7.90;99.90
50013;DHT22;35901;48.694;9.476;2022-09-17T18:23:38;7.90;99.90
50013;DHT22;35901;48.694;9.476;2022-09-17T18:26:06;8.00;99.90
50013;DHT22;35901;48.694;9.476;2022-09-17T18:28:34;8.10;99.90
50013;DHT22;35901;48.694;9.476;2022-09-17T18:31:10;8.20;99.90
50013;DHT22;35901;48.694;9.476;2022-09-17T18:33:41;8.20;99.90
50013;DHT22;35901;48.694;9.476;2022-09-17T18:36:08;8.30;99.90
50013;DHT22;35901;48.694;9.476;2022-09-17T18:38:36;8.30;99.90
50013;DHT22;35901;48.694;9.476;2022-09-17T18:41:10;8.40;99.90
50013;DHT22;35901;48.694;9.476;2022-09-17T18:43:36;8.40;99.90
50013;DHT22;35901;48.694;9.476;2022-09-17T18:46:04;8.50;99.90
50013;DHT22;35901;48.694;9.476;2022-09-17T18:48:37;8.50;99.90
50013;DHT22;35901;48.694;9.476;2022-09-17T18:51:09;8.50;99.90
50013;DHT22;35901;48.694;9.476;2022-09-17T18:53:36;8.60;99.90
50013;DHT22;35901;48.694;9.476;2022-09-17T18:56:07;8.70;99.90
50013;DHT22;35901;48.694;9.476;2022-09-17T18:58:33;8.70;99.90
50013;DHT22;35901;48.694;9.476;2022-09-17T19:00:59;8.60;99.90
50013;DHT22;35901;48.694;9.476;2022-09-17T19:03:25;8.60;99.90
50013;DHT22;35901;48.694;9.476;2022-09-17T19:05:51;8.60;99.90
50013;DHT22;35901;48.694;9.476;2022-09-17T19:08:23;8.70;99.90
50013;DHT22;35901;48.694;9.476;2022-09-17T19:10:51;8.70;99.90
50013;DHT22;35901;48.694;9.476;2022-09-17T19:13:25;8.70;99.90
50013;DHT22;35901;48.694;9.476;2022-09-17T19:15:57;8.80;99.90
50013;DHT22;35901;48.694;9.476;2022-09-17T19:18:24;8.80;99.90